Terminal Aerodrome Forecast
Issued by NWS Pocatello, ID

Home | Current Version | Previous Version | Text Only | Print | Product List | Glossary On
Versions: 1 2 3 4 5 6 7 8 9 10 11 12 13 14 15 16 17 18 19 20 21 22
693
FTUS45 KPIH 231146
TAFIDA
TAF
KIDA 231146Z 2312/2412 13006KT 6SM -SN BR BKN006 OVC025
      TEMPO 2312/2315 14006KT 2SM -SN BR OVC009
     FM231500 34013G23KT 2SM -SN BKN009 OVC015
     FM231800 34013G23KT P6SM VCSH OVC025=

USA.gov is the U.S. government's official web portal to all federal, state and local government web resources and services.